createdAt,value
2019-02-25T00:00:38.342Z,5.21
2019-02-25T00:03:07.862Z,5.29
2019-02-25T00:05:37.338Z,5.16
2019-02-25T00:08:06.889Z,5.19
2019-02-25T00:10:36.358Z,5.16
2019-02-25T00:13:05.887Z,5.20
2019-02-25T00:15:35.359Z,5.16
2019-02-25T00:18:24.559Z,5.03
2019-02-25T00:21:13.435Z,4.04
2019-02-25T00:24:02.277Z,4.34
2019-02-25T00:26:51.136Z,4.35
2019-02-25T00:29:39.987Z,4.41
2019-02-25T00:32:28.812Z,4.36
2019-02-25T00:35:10.859Z,4.43
2019-02-25T00:37:59.682Z,4.55
2019-02-25T00:40:48.486Z,4.31
2019-02-25T00:43:37.584Z,4.43
2019-02-25T00:46:26.379Z,3.87
2019-02-25T00:49:15.200Z,3.24
2019-02-25T00:52:03.991Z,4.44
2019-02-25T00:54:52.819Z,4.50
2019-02-25T00:57:41.608Z,4.38
2019-02-25T01:00:30.434Z,4.35
2019-02-25T01:03:19.328Z,4.13
2019-02-25T01:06:08.122Z,4.11
2019-02-25T01:08:56.940Z,3.94
2019-02-25T01:11:45.771Z,4.07
2019-02-25T01:14:34.589Z,4.17
2019-02-25T01:17:23.404Z,4.16
2019-02-25T01:20:33.111Z,4.25
2019-02-25T01:23:21.928Z,4.11
2019-02-25T01:26:10.757Z,3.80
2019-02-25T01:28:59.559Z,3.76
2019-02-25T01:34:35.953Z,4.00
2019-02-25T01:37:24.777Z,4.08
2019-02-25T01:40:34.904Z,4.10
2019-02-25T01:43:23.724Z,3.96
2019-02-25T01:46:12.535Z,3.90
2019-02-25T01:49:01.360Z,3.84
2019-02-25T01:51:50.178Z,3.41
2019-02-25T01:54:58.013Z,2.92
2019-02-25T01:57:46.838Z,3.51
2019-02-25T02:00:47.299Z,3.61
2019-02-25T02:03:26.180Z,3.69
2019-02-25T02:06:14.986Z,3.11
2019-02-25T02:09:04.045Z,3.86
2019-02-25T02:11:52.850Z,3.83
2019-02-25T02:14:41.663Z,3.80
2019-02-25T02:17:30.467Z,3.87
2019-02-25T02:20:19.352Z,3.20
2019-02-25T02:23:08.154Z,3.77
2019-02-25T02:25:56.979Z,3.85
2019-02-25T02:28:45.784Z,2.04
2019-02-25T02:31:34.669Z,3.66
2019-02-25T02:34:23.490Z,3.63
2019-02-25T02:37:05.575Z,3.69
2019-02-25T02:39:54.382Z,3.72
2019-02-25T02:43:04.157Z,3.76
2019-02-25T02:46:13.860Z,3.77
2019-02-25T02:52:18.005Z,3.80
2019-02-25T02:58:35.781Z,3.65
2019-02-25T03:01:24.573Z,3.70
2019-02-25T03:04:13.394Z,3.75
2019-02-25T03:07:02.539Z,3.69
2019-02-25T03:09:51.355Z,3.50
2019-02-25T03:12:40.476Z,3.49
2019-02-25T03:15:29.307Z,3.40
2019-02-25T03:18:18.101Z,3.35
2019-02-25T03:21:06.919Z,3.34
2019-02-25T03:23:55.715Z,3.37
2019-02-25T03:26:44.592Z,1.80
2019-02-25T03:29:33.408Z,3.43
2019-02-25T03:32:22.288Z,3.49
2019-02-25T03:35:11.210Z,3.03
2019-02-25T03:37:52.595Z,3.48
2019-02-25T03:40:41.541Z,3.35
2019-02-25T03:43:30.415Z,3.38
2019-02-25T03:46:19.287Z,3.18
2019-02-25T03:49:08.127Z,3.24
2019-02-25T03:51:56.995Z,3.35
2019-02-25T03:54:45.815Z,3.42
2019-02-25T03:57:36.154Z,1.93
2019-02-25T04:00:46.244Z,2.62
2019-02-25T04:03:35.193Z,1.68
2019-02-25T04:06:24.054Z,3.01
2019-02-25T04:09:12.961Z,2.95
2019-02-25T04:12:01.742Z,1.48
2019-02-25T04:14:50.562Z,3.18
2019-02-25T04:17:39.364Z,3.21
2019-02-25T04:20:28.179Z,3.21
2019-02-25T04:23:17.010Z,3.15
2019-02-25T04:26:05.811Z,3.16
2019-02-25T04:28:54.634Z,3.15
2019-02-25T04:31:43.433Z,3.10
2019-02-25T04:34:26.226Z,3.20
2019-02-25T04:37:15.022Z,2.90
2019-02-25T04:43:19.046Z,1.88
2019-02-25T04:46:07.846Z,2.50
2019-02-25T04:48:56.705Z,3.10
2019-02-25T04:51:45.527Z,3.01
2019-02-25T04:54:34.353Z,3.00
2019-02-25T04:57:23.154Z,2.11
2019-02-25T05:00:31.302Z,2.84
2019-02-25T05:03:20.105Z,2.77
2019-02-25T05:06:08.931Z,2.84
2019-02-25T05:08:57.732Z,2.82
2019-02-25T05:11:46.555Z,2.77
2019-02-25T05:14:35.362Z,2.78
2019-02-25T05:17:24.182Z,2.77
2019-02-25T05:23:39.861Z,2.74
2019-02-25T05:26:28.676Z,2.63
2019-02-25T05:29:17.516Z,2.54
2019-02-25T05:32:06.335Z,1.07
2019-02-25T05:34:48.021Z,2.38
2019-02-25T05:37:36.844Z,2.52
2019-02-25T05:40:25.720Z,2.56
2019-02-25T05:43:14.542Z,2.56
2019-02-25T05:46:03.365Z,1.08
2019-02-25T05:48:52.161Z,2.67
2019-02-25T05:51:40.991Z,2.72
2019-02-25T05:54:29.800Z,2.79
2019-02-25T05:57:18.679Z,2.73
2019-02-25T06:03:36.227Z,2.45
2019-02-25T06:06:25.033Z,2.49
2019-02-25T06:09:13.858Z,2.54
2019-02-25T06:12:02.661Z,2.48
2019-02-25T06:14:51.483Z,2.40
2019-02-25T06:17:40.284Z,2.34
2019-02-25T06:23:22.913Z,2.49
2019-02-25T06:26:12.025Z,2.39
2019-02-25T06:29:00.830Z,2.24
2019-02-25T06:32:08.682Z,2.31
2019-02-25T06:34:57.499Z,2.18
2019-02-25T06:37:38.787Z,2.20
2019-02-25T06:40:27.627Z,2.05
2019-02-25T06:43:16.418Z,0.36
2019-02-25T06:46:05.237Z,2.23
2019-02-25T06:48:54.054Z,2.35
2019-02-25T06:51:42.911Z,2.38
2019-02-25T06:54:31.703Z,2.45
2019-02-25T06:57:39.558Z,2.41
2019-02-25T07:00:28.435Z,2.30
2019-02-25T07:02:57.913Z,2.20
2019-02-25T07:06:05.744Z,2.47
2019-02-25T07:12:12.874Z,2.80
2019-02-25T07:18:30.099Z,3.15
2019-02-25T07:21:37.931Z,3.27
2019-02-25T07:24:26.541Z,3.49
2019-02-25T07:27:34.433Z,3.67
2019-02-25T07:33:51.615Z,4.05
2019-02-25T07:36:52.226Z,4.18
2019-02-25T07:40:00.282Z,4.30
2019-02-25T07:52:02.395Z,4.69
2019-02-25T07:55:10.225Z,4.82
2019-02-25T08:07:12.147Z,5.48
2019-02-25T08:10:00.676Z,4.26
2019-02-25T08:16:04.175Z,6.15
2019-02-25T08:19:12.006Z,6.24
2019-02-25T08:22:19.846Z,6.25
2019-02-25T08:25:08.497Z,6.39
2019-02-25T08:28:16.349Z,6.46
2019-02-25T08:31:24.421Z,6.62
2019-02-25T08:34:32.265Z,6.66
2019-02-25T08:37:37.799Z,6.78
2019-02-25T08:41:06.706Z,6.91
2019-02-25T08:44:14.618Z,6.18
2019-02-25T08:53:08.583Z,7.53
2019-02-25T08:55:58.339Z,7.28
2019-02-25T08:58:47.998Z,7.83
2019-02-25T09:01:36.825Z,6.39
2019-02-25T09:04:25.635Z,6.38
2019-02-25T09:07:14.429Z,8.05
2019-02-25T09:13:18.017Z,8.59
2019-02-25T09:16:06.814Z,8.62
2019-02-25T09:18:55.629Z,8.73
2019-02-25T09:21:44.446Z,8.98
2019-02-25T09:24:33.269Z,9.26
2019-02-25T09:27:22.056Z,8.22
2019-02-25T09:30:30.202Z,9.52
2019-02-25T09:33:19.075Z,8.30
2019-02-25T09:36:00.382Z,9.96
2019-02-25T09:38:49.188Z,10.22
2019-02-25T09:41:38.021Z,10.49
2019-02-25T09:44:26.850Z,10.66
2019-02-25T09:47:15.653Z,10.81
2019-02-25T09:50:24.312Z,9.62
2019-02-25T09:53:13.557Z,10.91
2019-02-25T09:56:02.379Z,10.62
2019-02-25T09:58:51.986Z,10.89
2019-02-25T10:01:41.693Z,11.73
2019-02-25T10:04:30.513Z,10.78
2019-02-25T10:07:19.364Z,12.07
2019-02-25T10:10:27.499Z,12.20
2019-02-25T10:13:16.306Z,12.37
2019-02-25T10:16:05.194Z,11.41
2019-02-25T10:18:54.024Z,12.93
2019-02-25T10:21:42.824Z,12.95
2019-02-25T10:24:31.655Z,13.26
2019-02-25T10:27:20.480Z,12.96
2019-02-25T10:30:30.199Z,13.76
2019-02-25T10:33:19.036Z,14.04
2019-02-25T10:36:01.131Z,14.32
2019-02-25T10:38:49.961Z,14.54
2019-02-25T10:41:38.759Z,14.55
2019-02-25T10:44:27.615Z,14.75
2019-02-25T10:47:18.979Z,13.72
2019-02-25T10:50:28.844Z,15.06
2019-02-25T10:53:20.285Z,15.33
2019-02-25T10:56:49.820Z,15.60
2019-02-25T10:59:39.524Z,15.23
2019-02-25T11:02:29.002Z,16.27
2019-02-25T11:05:19.005Z,16.41
2019-02-25T11:11:25.386Z,16.59
2019-02-25T11:14:14.066Z,16.90
2019-02-25T11:17:02.891Z,16.03
2019-02-25T11:19:42.693Z,17.49
2019-02-25T11:22:31.526Z,17.63
2019-02-25T11:25:21.592Z,17.83
2019-02-25T11:28:22.644Z,18.13
2019-02-25T11:31:01.496Z,18.29
2019-02-25T11:33:50.333Z,18.40
2019-02-25T11:36:31.672Z,18.31
2019-02-25T11:39:20.551Z,18.42
2019-02-25T11:42:10.817Z,18.73
2019-02-25T11:45:01.569Z,18.99
2019-02-25T11:47:50.462Z,19.26
2019-02-25T11:50:53.891Z,18.22
2019-02-25T11:53:29.811Z,19.67
2019-02-25T11:56:18.618Z,18.40
2019-02-25T11:59:07.786Z,20.01
2019-02-25T12:01:56.592Z,20.15
2019-02-25T12:04:45.416Z,19.61
2019-02-25T12:07:34.229Z,20.62
2019-02-25T12:10:23.120Z,21.11
2019-02-25T12:13:11.922Z,21.43
2019-02-25T12:16:00.743Z,21.70
2019-02-25T12:18:49.542Z,21.85
2019-02-25T12:21:30.882Z,22.36
2019-02-25T12:24:19.692Z,22.55
2019-02-25T12:27:08.510Z,22.70
2019-02-25T12:29:57.310Z,22.67
2019-02-25T12:32:46.136Z,23.10
2019-02-25T12:35:34.953Z,23.30
2019-02-25T12:38:23.774Z,23.16
2019-02-25T12:41:12.583Z,22.87
2019-02-25T12:44:01.401Z,23.28
2019-02-25T12:47:09.247Z,23.89
2019-02-25T12:49:58.065Z,24.34
2019-02-25T12:52:47.021Z,24.42
2019-02-25T12:55:35.824Z,25.06
2019-02-25T12:58:24.645Z,25.36
2019-02-25T13:01:13.445Z,25.35
2019-02-25T13:04:02.293Z,25.93
2019-02-25T13:06:51.086Z,26.25
2019-02-25T13:09:39.915Z,26.12
2019-02-25T13:12:28.729Z,25.65
2019-02-25T13:15:36.858Z,25.47
2019-02-25T13:18:25.683Z,25.93
2019-02-25T13:21:14.486Z,24.25
2019-02-25T13:23:57.475Z,25.41
2019-02-25T13:26:47.154Z,25.41
2019-02-25T13:29:35.960Z,24.95
2019-02-25T13:32:24.759Z,24.95
2019-02-25T13:38:29.604Z,26.01
2019-02-25T13:41:18.415Z,25.66
2019-02-25T13:44:07.310Z,26.12
2019-02-25T13:46:56.102Z,26.60
2019-02-25T13:49:44.925Z,26.72
2019-02-25T13:52:33.976Z,26.40
2019-02-25T13:55:23.073Z,26.78
2019-02-25T13:58:12.198Z,27.34
2019-02-25T14:01:01.015Z,27.52
2019-02-25T14:03:49.993Z,26.28
2019-02-25T14:06:57.840Z,27.00
2019-02-25T14:09:46.642Z,27.20
2019-02-25T14:12:35.462Z,27.98
2019-02-25T14:18:40.021Z,28.76
2019-02-25T14:21:28.891Z,29.06
2019-02-25T14:24:18.486Z,28.69
2019-02-25T14:27:08.276Z,27.68
2019-02-25T14:29:57.183Z,28.01
2019-02-25T14:32:46.057Z,28.73
2019-02-25T14:35:34.884Z,28.35
2019-02-25T14:38:25.233Z,27.72
2019-02-25T14:41:16.163Z,27.62
2019-02-25T14:44:04.755Z,27.29
2019-02-25T14:46:53.578Z,26.41
2019-02-25T14:49:42.898Z,26.43
2019-02-25T14:52:32.932Z,25.30
2019-02-25T14:55:21.751Z,25.41
2019-02-25T14:58:33.442Z,24.02
2019-02-25T15:01:21.053Z,24.57
2019-02-25T15:04:10.818Z,24.74
2019-02-25T15:06:59.625Z,24.76
2019-02-25T15:09:48.467Z,24.61
2019-02-25T15:12:37.756Z,25.10
2019-02-25T15:15:27.810Z,25.98
2019-02-25T15:17:57.434Z,25.87
2019-02-25T15:20:46.397Z,25.74
2019-02-25T15:23:29.560Z,26.66
2019-02-25T15:26:43.046Z,26.75
2019-02-25T15:29:28.597Z,27.38
2019-02-25T15:32:19.138Z,27.51
2019-02-25T15:38:18.909Z,28.05
2019-02-25T15:41:09.625Z,27.58
2019-02-25T15:44:02.106Z,27.97
2019-02-25T15:46:48.826Z,27.90
2019-02-25T15:49:37.716Z,27.09
2019-02-25T15:52:27.723Z,26.62
2019-02-25T15:55:19.004Z,26.50
2019-02-25T15:58:08.747Z,26.22
2019-02-25T16:00:58.302Z,25.74
2019-02-25T16:03:47.116Z,24.95
2019-02-25T16:06:37.717Z,24.18
2019-02-25T16:09:27.626Z,24.01
2019-02-25T16:12:17.291Z,23.64
2019-02-25T16:15:25.494Z,23.00
2019-02-25T16:18:14.908Z,22.78
2019-02-25T16:21:03.708Z,21.80
2019-02-25T16:26:27.502Z,21.95
2019-02-25T16:29:16.301Z,21.65
2019-02-25T16:32:05.294Z,21.34
2019-02-25T16:34:55.546Z,21.06
2019-02-25T16:37:44.660Z,20.53
2019-02-25T16:40:35.554Z,20.01
2019-02-25T16:43:24.074Z,19.53
2019-02-25T16:46:15.444Z,19.46
2019-02-25T16:49:03.493Z,19.35
2019-02-25T16:51:53.170Z,18.50
2019-02-25T16:54:42.863Z,19.06
2019-02-25T16:57:31.677Z,17.59
2019-02-25T17:00:41.841Z,18.31
2019-02-25T17:06:46.445Z,16.52
2019-02-25T17:09:37.004Z,17.60
2019-02-25T17:12:16.894Z,17.14
2019-02-25T17:18:26.088Z,15.55
2019-02-25T17:21:08.234Z,15.68
2019-02-25T17:23:58.186Z,15.83
2019-02-25T17:26:47.657Z,15.80
2019-02-25T17:29:36.490Z,15.67
2019-02-25T17:32:25.523Z,15.58
2019-02-25T17:35:35.170Z,15.51
2019-02-25T17:38:24.667Z,15.42
2019-02-25T17:41:14.517Z,15.10
2019-02-25T17:44:05.199Z,14.55
2019-02-25T17:46:55.304Z,14.77
2019-02-25T17:49:44.547Z,14.63
2019-02-25T17:52:36.083Z,14.53
2019-02-25T17:55:46.592Z,13.92
2019-02-25T17:58:35.955Z,14.26
2019-02-25T18:01:27.898Z,14.22
2019-02-25T18:04:16.502Z,14.16
2019-02-25T18:07:05.290Z,14.06
2019-02-25T18:09:54.129Z,13.90
2019-02-25T18:12:42.929Z,13.83
2019-02-25T18:15:32.313Z,13.72
2019-02-25T18:18:22.161Z,13.66
2019-02-25T18:21:06.390Z,13.58
2019-02-25T18:23:55.474Z,13.42
2019-02-25T18:26:47.028Z,13.25
2019-02-25T18:29:18.538Z,12.84
2019-02-25T18:32:08.572Z,12.69
2019-02-25T18:35:00.404Z,12.48
2019-02-25T18:37:49.368Z,12.41
2019-02-25T18:40:41.364Z,12.37
2019-02-25T18:43:30.498Z,11.94
2019-02-25T18:46:21.081Z,11.66
2019-02-25T18:52:17.659Z,12.06
2019-02-25T18:55:29.240Z,11.75
2019-02-25T19:01:15.386Z,10.33
2019-02-25T19:04:03.927Z,11.65
2019-02-25T19:06:52.759Z,11.59
2019-02-25T19:09:43.056Z,11.55
2019-02-25T19:12:32.250Z,11.53
2019-02-25T19:15:21.128Z,10.87
2019-02-25T19:21:17.753Z,10.91
2019-02-25T19:23:59.455Z,10.92
2019-02-25T19:26:49.004Z,10.86
2019-02-25T19:29:38.800Z,10.85
2019-02-25T19:35:28.676Z,10.62
2019-02-25T19:41:15.426Z,10.23
2019-02-25T19:44:04.229Z,9.77
2019-02-25T19:46:55.846Z,8.35
2019-02-25T19:49:45.905Z,10.01
2019-02-25T19:52:37.183Z,10.05
2019-02-25T19:55:26.414Z,8.60
2019-02-25T19:58:09.368Z,10.04
2019-02-25T20:01:01.047Z,9.52
2019-02-25T20:03:48.703Z,9.79
2019-02-25T20:06:37.504Z,8.41
2019-02-25T20:12:25.392Z,9.65
2019-02-25T20:15:37.672Z,8.58
2019-02-25T20:18:24.048Z,9.51
2019-02-25T20:21:14.564Z,9.43
2019-02-25T20:24:03.379Z,8.50
2019-02-25T20:26:55.076Z,9.36
2019-02-25T20:29:44.495Z,9.34
2019-02-25T20:32:34.215Z,8.23
2019-02-25T20:35:24.600Z,9.30
2019-02-25T20:38:14.281Z,9.24
2019-02-25T20:43:58.843Z,9.04
2019-02-25T20:46:50.626Z,8.93
2019-02-25T20:49:57.917Z,8.55
2019-02-25T20:52:48.452Z,8.93
2019-02-25T20:58:46.673Z,7.92
2019-02-25T21:01:39.527Z,7.84
2019-02-25T21:07:20.238Z,7.14
2019-02-25T21:10:32.802Z,7.74
2019-02-25T21:13:22.048Z,7.79
2019-02-25T21:16:11.046Z,7.90
2019-02-25T21:18:59.866Z,7.98
2019-02-25T21:21:52.819Z,7.16
2019-02-25T21:24:39.565Z,8.05
2019-02-25T21:27:30.191Z,8.07
2019-02-25T21:30:43.221Z,8.08
2019-02-25T21:33:30.490Z,7.98
2019-02-25T21:36:20.883Z,6.11
2019-02-25T21:42:21.796Z,7.75
2019-02-25T21:45:32.328Z,6.00
2019-02-25T21:48:23.126Z,7.64
2019-02-25T21:51:13.758Z,7.59
2019-02-25T21:54:02.766Z,7.14
2019-02-25T21:56:52.682Z,5.43
2019-02-25T21:59:41.486Z,6.72
2019-02-25T22:02:23.449Z,6.59
2019-02-25T22:05:14.347Z,6.52
2019-02-25T22:08:24.126Z,6.52
2019-02-25T22:11:15.597Z,6.48
2019-02-25T22:14:02.973Z,6.49
2019-02-25T22:16:52.710Z,6.54
2019-02-25T22:19:43.730Z,6.49
2019-02-25T22:22:33.224Z,6.28
2019-02-25T22:25:23.925Z,6.16
2019-02-25T22:28:12.729Z,6.00
2019-02-25T22:31:01.546Z,6.25
2019-02-25T22:33:50.342Z,6.44
2019-02-25T22:36:41.537Z,6.58
2019-02-25T22:39:31.889Z,6.66
2019-02-25T22:42:20.220Z,6.62
2019-02-25T22:45:31.466Z,6.43
2019-02-25T22:48:21.540Z,6.26
2019-02-25T22:51:11.077Z,6.10
2019-02-25T22:53:59.944Z,6.14
2019-02-25T22:56:48.840Z,4.74
2019-02-25T22:59:37.768Z,4.57
2019-02-25T23:02:19.720Z,6.00
2019-02-25T23:05:12.688Z,4.22
2019-02-25T23:07:59.079Z,5.68
2019-02-25T23:13:55.937Z,5.70
2019-02-25T23:16:45.795Z,5.69
2019-02-25T23:19:37.113Z,5.57
2019-02-25T23:22:25.865Z,5.55
2019-02-25T23:25:14.683Z,5.66
2019-02-25T23:28:03.482Z,5.79
2019-02-25T23:30:53.268Z,4.95
2019-02-25T23:33:44.380Z,5.85
2019-02-25T23:36:33.714Z,5.85
2019-02-25T23:39:22.508Z,5.60
2019-02-25T23:42:11.901Z,5.34
2019-02-25T23:45:01.839Z,5.83
2019-02-25T23:50:59.665Z,4.15
2019-02-25T23:53:35.392Z,4.57
2019-02-25T23:56:25.648Z,5.65
2019-02-25T23:59:16.909Z,3.80
